createdAt,value
2019-05-03T00:02:12.556Z,11.50
2019-05-03T00:04:45.695Z,11.40
2019-05-03T00:07:22.257Z,11.40
2019-05-03T00:09:53.260Z,11.50
2019-05-03T00:12:24.716Z,11.40
2019-05-03T00:14:57.790Z,11.40
2019-05-03T00:17:29.042Z,11.40
2019-05-03T00:20:02.207Z,11.50
2019-05-03T00:22:33.405Z,11.40
2019-05-03T00:25:08.400Z,11.40
2019-05-03T00:27:39.763Z,11.40
2019-05-03T00:30:11.987Z,11.40
2019-05-03T00:32:44.343Z,11.40
2019-05-03T00:35:22.468Z,11.50
2019-05-03T00:37:55.033Z,11.40
2019-05-03T00:40:28.020Z,11.30
2019-05-03T00:43:02.172Z,11.40
2019-05-03T00:45:33.389Z,11.40
2019-05-03T00:48:05.285Z,11.50
2019-05-03T00:50:38.021Z,11.60
2019-05-03T00:53:11.601Z,11.50
2019-05-03T00:55:42.896Z,11.50
2019-05-03T00:58:14.134Z,11.40
2019-05-03T01:00:46.079Z,11.40
2019-05-03T01:03:18.954Z,11.30
2019-05-03T01:05:50.451Z,11.30
2019-05-03T01:08:22.093Z,11.40
2019-05-03T01:10:53.770Z,11.30
2019-05-03T01:13:25.015Z,11.20
2019-05-03T01:15:59.133Z,11.10
2019-05-03T01:18:32.290Z,11.00
2019-05-03T01:21:03.538Z,11.20
2019-05-03T01:23:35.188Z,11.20
2019-05-03T01:26:08.315Z,11.20
2019-05-03T01:28:45.323Z,11.30
2019-05-03T01:31:17.709Z,11.30
2019-05-03T01:33:48.994Z,11.30
2019-05-03T01:36:22.602Z,11.30
2019-05-03T01:38:53.453Z,11.30
2019-05-03T01:41:25.011Z,11.20
2019-05-03T01:43:56.309Z,11.20
2019-05-03T01:46:27.640Z,11.30
2019-05-03T01:49:06.479Z,11.30
2019-05-03T01:51:39.408Z,11.30
2019-05-03T01:54:12.254Z,11.30
2019-05-03T01:56:56.018Z,11.30
2019-05-03T01:59:16.574Z,11.20
2019-05-03T02:01:51.686Z,11.20
2019-05-03T02:04:29.107Z,11.20
2019-05-03T02:07:02.204Z,11.20
2019-05-03T02:09:33.662Z,11.20
2019-05-03T02:12:05.254Z,11.20
2019-05-03T02:14:37.564Z,11.20
2019-05-03T02:17:08.895Z,11.20
2019-05-03T02:19:41.996Z,11.20
2019-05-03T02:22:13.169Z,11.30
2019-05-03T02:24:44.426Z,11.20
2019-05-03T02:27:15.731Z,11.20
2019-05-03T02:29:47.006Z,11.20
2019-05-03T02:32:18.986Z,11.20
2019-05-03T02:34:50.398Z,11.30
2019-05-03T02:37:22.495Z,11.20
2019-05-03T02:39:57.166Z,11.20
2019-05-03T02:42:28.467Z,11.20
2019-05-03T02:45:00.260Z,11.20
2019-05-03T02:47:39.169Z,11.20
2019-05-03T02:50:12.392Z,11.20
2019-05-03T02:52:45.819Z,11.20
2019-05-03T02:55:17.000Z,11.20
2019-05-03T02:57:48.294Z,11.10
2019-05-03T03:00:25.602Z,11.00
2019-05-03T03:02:57.015Z,10.90
2019-05-03T03:05:28.458Z,10.80
2019-05-03T03:07:59.704Z,10.80
2019-05-03T03:10:31.504Z,10.70
2019-05-03T03:13:05.891Z,10.50
2019-05-03T03:15:40.247Z,10.50
2019-05-03T03:18:12.310Z,10.50
2019-05-03T03:20:46.710Z,10.40
2019-05-03T03:23:20.301Z,10.40
2019-05-03T03:25:55.927Z,10.40
2019-05-03T03:28:28.455Z,10.40
2019-05-03T03:31:09.962Z,10.40
2019-05-03T03:33:41.171Z,10.40
2019-05-03T03:36:37.784Z,10.30
2019-05-03T03:38:46.061Z,10.30
2019-05-03T03:41:17.652Z,10.30
2019-05-03T03:43:51.959Z,10.40
2019-05-03T03:46:25.339Z,10.30
2019-05-03T03:48:57.707Z,10.40
2019-05-03T03:51:31.140Z,10.30
2019-05-03T03:54:06.049Z,10.30
2019-05-03T03:56:56.042Z,10.30
2019-05-03T03:59:15.732Z,10.30
2019-05-03T04:01:47.681Z,10.30
2019-05-03T04:04:28.162Z,10.20
2019-05-03T04:07:01.395Z,10.20
2019-05-03T04:09:36.080Z,10.30
2019-05-03T04:12:06.789Z,10.20
2019-05-03T04:14:46.944Z,10.20
2019-05-03T04:17:36.235Z,10.20
2019-05-03T04:20:09.215Z,10.10
2019-05-03T04:22:42.080Z,10.20
2019-05-03T04:25:15.470Z,10.20
2019-05-03T04:27:49.150Z,10.10
2019-05-03T04:30:20.658Z,10.20
2019-05-03T04:32:52.128Z,10.10
2019-05-03T04:35:26.238Z,10.20
2019-05-03T04:37:56.665Z,10.10
2019-05-03T04:40:27.925Z,10.10
2019-05-03T04:42:59.160Z,10.20
2019-05-03T04:45:30.603Z,10.20
2019-05-03T04:48:01.905Z,10.20
2019-05-03T04:50:36.547Z,10.20
2019-05-03T04:53:06.888Z,10.20
2019-05-03T04:55:39.130Z,10.20
2019-05-03T04:58:10.377Z,10.20
2019-05-03T05:00:41.629Z,10.10
2019-05-03T05:03:15.117Z,10.10
2019-05-03T05:05:46.174Z,10.00
2019-05-03T05:08:17.885Z,10.00
2019-05-03T05:10:55.815Z,10.00
2019-05-03T05:13:25.059Z,9.90
2019-05-03T05:15:57.095Z,9.90
2019-05-03T05:18:35.347Z,9.90
2019-05-03T05:21:10.682Z,9.90
2019-05-03T05:23:49.973Z,9.90
2019-05-03T05:26:24.814Z,9.90
2019-05-03T05:28:57.839Z,10.00
2019-05-03T05:31:29.133Z,10.10
2019-05-03T05:34:02.426Z,10.10
2019-05-03T05:36:34.762Z,10.20
2019-05-03T05:39:09.310Z,10.20
2019-05-03T05:41:40.768Z,10.30
2019-05-03T05:44:12.166Z,10.40
2019-05-03T05:46:48.202Z,10.40
2019-05-03T05:49:37.321Z,10.40
2019-05-03T05:52:08.949Z,10.40
2019-05-03T05:54:42.026Z,10.40
2019-05-03T05:57:25.470Z,10.50
2019-05-03T05:59:58.174Z,10.50
2019-05-03T06:02:29.523Z,10.60
2019-05-03T06:05:00.999Z,10.80
2019-05-03T06:07:44.218Z,10.80
2019-05-03T06:10:34.691Z,10.90
2019-05-03T06:13:10.762Z,10.90
2019-05-03T06:15:57.405Z,10.90
2019-05-03T06:18:39.340Z,10.90
2019-05-03T06:21:28.181Z,11.00
2019-05-03T06:24:17.778Z,11.10
2019-05-03T06:26:48.952Z,11.00
2019-05-03T06:29:20.254Z,10.80
2019-05-03T06:32:09.364Z,11.10
2019-05-03T06:34:41.914Z,11.30
2019-05-03T06:37:15.023Z,11.30
2019-05-03T06:39:46.383Z,11.40
2019-05-03T06:42:19.747Z,11.20
2019-05-03T06:44:50.891Z,11.10
2019-05-03T06:47:22.214Z,11.10
2019-05-03T06:49:55.237Z,11.10
2019-05-03T06:52:29.315Z,11.40
2019-05-03T06:55:00.247Z,11.60
2019-05-03T06:57:32.982Z,11.60
2019-05-03T07:00:18.009Z,11.80
2019-05-03T07:02:50.944Z,12.00
2019-05-03T07:05:22.023Z,11.90
2019-05-03T07:07:57.688Z,12.00
2019-05-03T07:10:30.683Z,12.20
2019-05-03T07:13:04.995Z,12.30
2019-05-03T07:15:36.763Z,12.20
2019-05-03T07:18:08.247Z,12.20
2019-05-03T07:20:58.964Z,12.20
2019-05-03T07:23:30.428Z,12.30
2019-05-03T07:26:05.217Z,12.50
2019-05-03T07:28:46.417Z,12.50
2019-05-03T07:31:09.521Z,12.60
2019-05-03T07:33:40.782Z,12.70
2019-05-03T07:36:12.486Z,12.70
2019-05-03T07:38:45.352Z,12.70
2019-05-03T07:41:17.231Z,12.70
2019-05-03T07:43:48.607Z,13.10
2019-05-03T07:46:19.894Z,12.90
2019-05-03T07:48:51.323Z,13.10
2019-05-03T07:51:24.683Z,13.30
2019-05-03T07:53:55.857Z,13.40
2019-05-03T07:56:31.878Z,13.70
2019-05-03T07:59:06.372Z,13.20
2019-05-03T08:01:45.617Z,13.10
2019-05-03T08:04:17.482Z,13.00
2019-05-03T08:06:50.026Z,13.00
2019-05-03T08:09:21.280Z,12.90
2019-05-03T08:11:54.650Z,12.80
2019-05-03T08:14:25.749Z,12.60
2019-05-03T08:17:00.373Z,12.70
2019-05-03T08:19:31.635Z,12.80
2019-05-03T08:22:04.750Z,12.60
2019-05-03T08:24:37.865Z,12.60
2019-05-03T08:27:09.351Z,12.60
2019-05-03T08:29:40.861Z,12.60
2019-05-03T08:32:30.101Z,12.50
2019-05-03T08:35:06.333Z,12.60
2019-05-03T08:37:48.187Z,12.60
2019-05-03T08:40:24.557Z,12.80
2019-05-03T08:42:56.964Z,12.80
2019-05-03T08:45:28.302Z,12.80
2019-05-03T08:47:59.710Z,12.90
2019-05-03T08:50:31.064Z,13.00
2019-05-03T08:53:04.908Z,13.10
2019-05-03T08:55:35.626Z,13.30
2019-05-03T08:58:08.506Z,13.30
2019-05-03T09:00:41.566Z,13.30
2019-05-03T09:03:14.396Z,13.50
2019-05-03T09:05:46.482Z,13.40
2019-05-03T09:08:18.019Z,13.30
2019-05-03T09:10:59.676Z,13.40
2019-05-03T09:13:49.126Z,13.60
2019-05-03T09:16:20.544Z,13.60
2019-05-03T09:18:52.065Z,13.50
2019-05-03T09:21:25.328Z,13.50
2019-05-03T09:23:57.194Z,13.60
2019-05-03T09:26:29.543Z,13.70
2019-05-03T09:29:01.089Z,14.00
2019-05-03T09:31:32.554Z,14.30
2019-05-03T09:34:08.076Z,14.80
2019-05-03T09:36:38.094Z,14.70
2019-05-03T09:39:09.656Z,14.80
2019-05-03T09:41:40.944Z,15.40
2019-05-03T09:44:14.974Z,15.60
2019-05-03T09:46:46.627Z,15.30
2019-05-03T09:49:17.923Z,15.00
2019-05-03T09:51:49.778Z,14.90
2019-05-03T09:54:22.925Z,15.40
2019-05-03T09:56:58.530Z,15.60
2019-05-03T09:59:32.080Z,15.50
2019-05-03T10:02:15.859Z,15.80
2019-05-03T10:04:46.496Z,16.00
2019-05-03T10:07:25.805Z,15.40
2019-05-03T10:09:57.685Z,15.00
2019-05-03T10:12:31.022Z,15.00
2019-05-03T10:15:02.793Z,14.60
2019-05-03T10:17:35.085Z,14.30
2019-05-03T10:20:09.999Z,14.20
2019-05-03T10:22:42.115Z,14.20
2019-05-03T10:25:13.805Z,14.20
2019-05-03T10:27:48.328Z,14.10
2019-05-03T10:30:22.661Z,14.00
2019-05-03T10:32:58.723Z,14.00
2019-05-03T10:35:29.969Z,13.90
2019-05-03T10:38:01.254Z,14.00
2019-05-03T10:40:32.627Z,14.10
2019-05-03T10:43:04.863Z,15.00
2019-05-03T10:45:38.395Z,15.50
2019-05-03T10:48:09.886Z,15.60
2019-05-03T10:50:41.323Z,15.40
2019-05-03T10:53:30.156Z,16.00
2019-05-03T10:56:23.425Z,15.80
2019-05-03T10:59:06.168Z,15.40
2019-05-03T11:01:57.763Z,15.50
2019-05-03T11:04:29.990Z,15.20
2019-05-03T11:07:01.389Z,15.10
2019-05-03T11:09:47.252Z,15.10
2019-05-03T11:12:05.899Z,15.40
2019-05-03T11:14:39.286Z,16.20
2019-05-03T11:17:10.653Z,16.10
2019-05-03T11:19:42.070Z,16.00
2019-05-03T11:22:15.017Z,15.90
2019-05-03T11:24:46.378Z,15.70
2019-05-03T11:27:19.263Z,15.40
2019-05-03T11:29:59.238Z,15.20
2019-05-03T11:32:35.261Z,15.40
2019-05-03T11:35:17.039Z,15.40
2019-05-03T11:37:52.836Z,15.10
2019-05-03T11:40:25.183Z,15.20
2019-05-03T11:42:59.426Z,15.10
2019-05-03T11:45:30.838Z,15.10
2019-05-03T11:48:02.285Z,15.10
2019-05-03T11:50:34.747Z,14.80
2019-05-03T11:53:08.261Z,14.70
2019-05-03T11:55:39.540Z,14.70
2019-05-03T11:58:19.138Z,14.60
2019-05-03T12:01:11.761Z,14.80
2019-05-03T12:03:45.030Z,14.70
2019-05-03T12:06:16.863Z,14.70
2019-05-03T12:08:48.380Z,14.60
2019-05-03T12:11:19.774Z,14.50
2019-05-03T12:14:03.866Z,14.40
2019-05-03T12:17:08.624Z,14.30
2019-05-03T12:19:15.681Z,14.20
2019-05-03T12:21:38.106Z,14.10
2019-05-03T12:24:10.268Z,13.90
2019-05-03T12:26:46.797Z,13.80
2019-05-03T12:29:16.520Z,13.70
2019-05-03T12:31:59.669Z,13.60
2019-05-03T12:34:34.994Z,13.40
2019-05-03T12:37:05.679Z,13.30
2019-05-03T12:39:37.656Z,13.20
2019-05-03T12:42:09.544Z,13.50
2019-05-03T12:44:40.923Z,13.60
2019-05-03T12:47:14.473Z,13.30
2019-05-03T12:49:45.320Z,13.40
2019-05-03T12:52:17.342Z,13.50
2019-05-03T12:54:48.900Z,13.60
2019-05-03T12:57:20.200Z,13.70
2019-05-03T13:00:05.493Z,13.70
2019-05-03T13:02:42.218Z,13.80
2019-05-03T13:05:15.389Z,13.80
2019-05-03T13:07:51.321Z,13.70
2019-05-03T13:10:26.559Z,13.60
2019-05-03T13:12:58.427Z,13.40
2019-05-03T13:15:29.902Z,13.50
2019-05-03T13:18:01.226Z,13.50
2019-05-03T13:20:32.642Z,13.40
2019-05-03T13:23:05.456Z,13.60
2019-05-03T13:25:37.122Z,13.70
2019-05-03T13:28:08.405Z,13.60
2019-05-03T13:30:39.695Z,13.70
2019-05-03T13:33:11.037Z,13.50
2019-05-03T13:35:44.455Z,13.20
2019-05-03T13:38:15.775Z,13.10
2019-05-03T13:40:47.905Z,12.80
2019-05-03T13:43:19.136Z,12.60
2019-05-03T13:45:50.521Z,12.60
2019-05-03T13:48:23.554Z,12.60
2019-05-03T13:50:55.219Z,12.60
2019-05-03T13:53:26.814Z,12.60
2019-05-03T13:55:58.463Z,12.80
2019-05-03T13:58:30.211Z,12.90
2019-05-03T14:01:01.716Z,12.70
2019-05-03T14:03:35.211Z,12.60
2019-05-03T14:06:10.585Z,12.80
2019-05-03T14:08:42.002Z,12.70
2019-05-03T14:11:15.541Z,12.70
2019-05-03T14:13:47.506Z,12.70
2019-05-03T14:16:18.738Z,12.80
2019-05-03T14:18:51.780Z,12.90
2019-05-03T14:21:24.663Z,13.10
2019-05-03T14:24:12.879Z,13.30
2019-05-03T14:26:44.877Z,13.40
2019-05-03T14:29:16.357Z,13.40
2019-05-03T14:31:47.785Z,13.40
2019-05-03T14:34:19.219Z,13.50
2019-05-03T14:36:55.454Z,13.50
2019-05-03T14:42:39.570Z,13.50
2019-05-03T14:45:10.940Z,13.60
2019-05-03T14:47:42.435Z,13.60
2019-05-03T14:50:15.035Z,13.70
2019-05-03T14:52:46.494Z,13.70
2019-05-03T14:55:19.512Z,13.80
2019-05-03T14:57:52.511Z,13.80
2019-05-03T15:00:45.167Z,13.90
2019-05-03T15:03:18.249Z,13.90
2019-05-03T15:05:49.495Z,13.80
2019-05-03T15:08:20.816Z,13.90
2019-05-03T15:10:52.117Z,13.70
2019-05-03T15:13:25.138Z,13.60
2019-05-03T15:15:57.985Z,13.60
2019-05-03T15:18:29.491Z,13.50
2019-05-03T15:21:00.939Z,13.40
2019-05-03T15:23:34.353Z,12.80
2019-05-03T15:26:05.497Z,12.80
2019-05-03T15:28:36.900Z,12.80
2019-05-03T15:31:08.218Z,12.80
2019-05-03T15:33:39.543Z,12.80
2019-05-03T15:36:11.085Z,12.80
2019-05-03T15:38:44.531Z,12.90
2019-05-03T15:41:22.856Z,13.00
2019-05-03T15:43:59.477Z,13.00
2019-05-03T15:46:37.161Z,13.00
2019-05-03T15:49:08.555Z,12.90
2019-05-03T15:51:40.250Z,12.90
2019-05-03T15:54:11.649Z,13.00
2019-05-03T15:56:44.788Z,13.00
2019-05-03T15:59:20.971Z,13.00
2019-05-03T16:01:52.567Z,13.00
2019-05-03T16:04:25.098Z,13.00
2019-05-03T16:06:56.614Z,12.90
2019-05-03T16:09:27.976Z,13.00
2019-05-03T16:11:59.356Z,13.10
2019-05-03T16:14:31.628Z,13.10
2019-05-03T16:17:04.470Z,13.20
2019-05-03T16:19:35.981Z,13.20
2019-05-03T16:22:07.654Z,13.10
2019-05-03T16:24:39.166Z,13.20
2019-05-03T16:27:19.104Z,13.40
2019-05-03T16:29:50.663Z,14.20
2019-05-03T16:32:22.029Z,14.20
2019-05-03T16:34:55.002Z,14.10
2019-05-03T16:37:27.827Z,14.00
2019-05-03T16:39:59.330Z,13.80
2019-05-03T16:42:31.015Z,13.80
2019-05-03T16:45:02.739Z,13.70
2019-05-03T16:47:35.454Z,13.70
2019-05-03T16:50:08.038Z,13.60
2019-05-03T16:52:39.532Z,13.60
2019-05-03T16:55:11.301Z,13.50
2019-05-03T16:57:44.323Z,13.50
2019-05-03T17:00:17.931Z,13.50
2019-05-03T17:02:49.467Z,13.40
2019-05-03T17:05:25.196Z,13.40
2019-05-03T17:08:14.759Z,13.40
2019-05-03T17:10:48.033Z,13.30
2019-05-03T17:13:19.393Z,13.40
2019-05-03T17:15:50.896Z,13.30
2019-05-03T17:18:24.511Z,13.30
2019-05-03T17:20:58.463Z,13.40
2019-05-03T17:23:30.252Z,13.50
2019-05-03T17:26:01.687Z,13.70
2019-05-03T17:28:35.176Z,13.90
2019-05-03T17:31:06.479Z,14.20
2019-05-03T17:33:37.892Z,14.40
2019-05-03T17:36:09.508Z,14.40
2019-05-03T17:38:41.005Z,14.30
2019-05-03T17:41:26.314Z,14.20
2019-05-03T17:43:59.242Z,14.30
2019-05-03T17:46:30.610Z,14.30
2019-05-03T17:49:05.256Z,14.30
2019-05-03T17:51:38.272Z,13.90
2019-05-03T17:54:25.217Z,13.90
2019-05-03T17:57:01.403Z,13.60
2019-05-03T17:59:37.610Z,13.40
2019-05-03T18:02:30.979Z,13.30
2019-05-03T18:05:21.898Z,13.40
2019-05-03T18:07:54.558Z,13.20
2019-05-03T18:10:27.814Z,13.00
2019-05-03T18:12:59.653Z,13.00
2019-05-03T18:15:31.228Z,13.00
2019-05-03T18:18:02.660Z,13.00
2019-05-03T18:20:34.607Z,13.00
2019-05-03T18:23:06.185Z,13.10
2019-05-03T18:25:38.559Z,13.10
2019-05-03T18:28:10.438Z,12.80
2019-05-03T18:30:41.682Z,12.80
2019-05-03T18:33:15.253Z,12.80
2019-05-03T18:35:46.533Z,12.60
2019-05-03T18:38:17.970Z,12.60
2019-05-03T18:40:49.373Z,12.60
2019-05-03T18:43:34.969Z,12.60
2019-05-03T18:46:24.030Z,12.50
2019-05-03T18:48:55.433Z,12.30
2019-05-03T18:51:26.880Z,12.20
2019-05-03T18:53:58.281Z,12.20
2019-05-03T18:56:29.745Z,12.20
2019-05-03T18:59:05.105Z,12.20
2019-05-03T19:01:36.794Z,12.10
2019-05-03T19:04:15.602Z,12.20
2019-05-03T19:06:47.008Z,12.20
2019-05-03T19:09:25.258Z,12.00
2019-05-03T19:12:10.474Z,11.90
2019-05-03T19:14:41.929Z,11.80
2019-05-03T19:17:18.847Z,11.80
2019-05-03T19:19:55.160Z,11.70
2019-05-03T19:22:26.912Z,11.60
2019-05-03T19:24:59.468Z,11.60
2019-05-03T19:27:31.720Z,11.50
2019-05-03T19:30:04.663Z,11.50
2019-05-03T19:32:36.694Z,11.50
2019-05-03T19:35:09.821Z,11.50
2019-05-03T19:37:41.355Z,11.50
2019-05-03T19:40:13.135Z,11.50
2019-05-03T19:42:44.779Z,11.40
2019-05-03T19:45:17.428Z,11.40
2019-05-03T19:47:48.813Z,11.30
2019-05-03T19:50:20.310Z,11.30
2019-05-03T19:52:57.316Z,11.30
2019-05-03T19:55:28.724Z,11.20
2019-05-03T19:58:00.865Z,11.20
2019-05-03T20:00:40.806Z,11.10
2019-05-03T20:03:30.293Z,11.10
2019-05-03T20:06:04.919Z,11.10
2019-05-03T20:08:40.852Z,11.10
2019-05-03T20:11:18.247Z,11.00
2019-05-03T20:13:49.616Z,11.00
2019-05-03T20:16:21.039Z,11.00
2019-05-03T20:18:52.627Z,11.00
2019-05-03T20:21:25.304Z,11.10
2019-05-03T20:23:56.829Z,11.10
2019-05-03T20:26:28.449Z,11.10
2019-05-03T20:29:11.655Z,11.10
2019-05-03T20:31:44.680Z,11.00
2019-05-03T20:34:16.776Z,11.00
2019-05-03T20:36:48.103Z,11.00
2019-05-03T20:39:22.279Z,11.00
2019-05-03T20:41:55.026Z,11.00
2019-05-03T20:44:28.295Z,11.00
2019-05-03T20:47:17.278Z,11.00
2019-05-03T20:49:50.196Z,10.90
2019-05-03T20:52:21.593Z,10.90
2019-05-03T20:54:52.995Z,10.90
2019-05-03T20:57:25.370Z,10.80
2019-05-03T20:59:56.731Z,10.80
2019-05-03T21:02:28.054Z,10.70
2019-05-03T21:05:00.192Z,10.60
2019-05-03T21:07:31.486Z,10.60
2019-05-03T21:10:07.395Z,10.70
2019-05-03T21:12:39.835Z,10.70
2019-05-03T21:15:29.399Z,10.60
2019-05-03T21:18:15.192Z,10.60
2019-05-03T21:20:55.527Z,10.50
2019-05-03T21:23:28.557Z,10.50
2019-05-03T21:26:13.347Z,10.40
2019-05-03T21:28:44.959Z,10.40
2019-05-03T21:31:16.357Z,10.40
2019-05-03T21:33:47.784Z,10.50
2019-05-03T21:36:20.741Z,10.50
2019-05-03T21:38:52.098Z,10.30
2019-05-03T21:41:24.640Z,10.10
2019-05-03T21:43:58.786Z,10.10
2019-05-03T21:46:41.586Z,10.10
2019-05-03T21:49:25.405Z,10.00
2019-05-03T21:51:59.827Z,10.10
2019-05-03T21:54:31.213Z,10.10
2019-05-03T21:57:02.883Z,10.00
2019-05-03T21:59:35.449Z,10.00
2019-05-03T22:02:07.177Z,9.90
2019-05-03T22:04:47.314Z,9.80
2019-05-03T22:07:22.535Z,9.80
2019-05-03T22:09:54.491Z,9.70
2019-05-03T22:12:25.971Z,9.80
2019-05-03T22:15:00.095Z,9.80
2019-05-03T22:17:49.555Z,9.90
2019-05-03T22:20:38.566Z,9.90
2019-05-03T22:23:27.803Z,9.90
2019-05-03T22:26:00.759Z,9.90
2019-05-03T22:28:32.506Z,9.80
2019-05-03T22:31:06.620Z,9.80
2019-05-03T22:33:37.267Z,9.80
2019-05-03T22:36:09.159Z,9.70
2019-05-03T22:38:40.813Z,9.80
2019-05-03T22:41:12.152Z,9.80
2019-05-03T22:43:45.543Z,9.70
2019-05-03T22:46:16.550Z,9.70
2019-05-03T22:48:48.368Z,9.80
2019-05-03T22:51:19.740Z,9.80
2019-05-03T22:53:50.993Z,9.90
2019-05-03T22:56:22.352Z,9.90
2019-05-03T22:58:54.815Z,9.90
2019-05-03T23:01:26.334Z,9.90
2019-05-03T23:03:57.657Z,10.00
2019-05-03T23:06:29.059Z,10.00
2019-05-03T23:09:02.442Z,10.10
2019-05-03T23:11:35.561Z,9.90
2019-05-03T23:14:07.012Z,9.90
2019-05-03T23:16:38.447Z,9.90
2019-05-03T23:19:09.963Z,10.00
2019-05-03T23:21:54.514Z,10.10
2019-05-03T23:24:25.864Z,10.00
2019-05-03T23:26:57.201Z,9.90
2019-05-03T23:29:28.597Z,9.80
2019-05-03T23:32:01.440Z,9.70
2019-05-03T23:34:35.088Z,9.60
2019-05-03T23:37:10.964Z,9.70
2019-05-03T23:39:44.296Z,9.70
2019-05-03T23:42:17.048Z,9.60
2019-05-03T23:44:48.516Z,9.60
2019-05-03T23:47:25.421Z,9.60
2019-05-03T23:49:56.775Z,9.70
2019-05-03T23:52:28.426Z,9.80
2019-05-03T23:55:05.717Z,9.90
2019-05-03T23:57:37.037Z,9.70
